Time;durP1;ratioP1;P1;durP2;ratioP2;P2;SDS_P1;SDS_P2;PMS_P1;PMS_P2;Temp;Humidity;BMP_temperature;BMP_pressure;BME280_temperature;BME280_humidity;BME280_pressure;Samples;Min_cycle;Max_cycle;Signal;HPM_P1;HPM_P2
2023/05/03 00:02:09;;;;;;;7.20;5.25;;;;;;;5.70;77.93;102679.72;4903957;28;20090;-71
2023/05/03 00:04:35;;;;;;;7.55;5.10;;;;;;;5.71;78.30;102680.59;4902383;28;20031;-71
2023/05/03 00:07:01;;;;;;;7.63;4.72;;;;;;;5.68;78.49;102670.91;4902677;29;20032;-71
2023/05/03 00:09:26;;;;;;;8.73;5.18;;;;;;;5.70;78.23;102673.56;4904601;28;20475;-70
2023/05/03 00:11:52;;;;;;;10.63;5.40;;;;;;;5.67;78.73;102676.22;4904700;29;20455;-71
2023/05/03 00:14:18;;;;;;;7.55;5.28;;;;;;;5.58;78.69;102668.31;4915749;28;20032;-71
2023/05/03 00:16:43;;;;;;;5.07;4.57;;;;;;;5.54;78.72;102669.19;4926225;28;20044;-71
2023/05/03 00:19:08;;;;;;;9.80;5.55;;;;;;;5.52;78.66;102670.94;4905333;28;20428;-71
2023/05/03 00:21:34;;;;;;;7.10;4.97;;;;;;;5.48;79.70;102663.03;4903876;28;20115;-71
2023/05/03 00:23:59;;;;;;;6.07;4.53;;;;;;;5.44;79.52;102668.31;4903700;29;20252;-71
2023/05/03 00:26:25;;;;;;;6.35;5.00;;;;;;;5.38;79.76;102661.25;4965127;28;20525;-71
2023/05/03 00:28:51;;;;;;;6.70;4.93;;;;;;;5.47;80.06;102671.81;4948059;28;20475;-70
2023/05/03 00:31:16;;;;;;;8.73;5.20;;;;;;;5.43;80.11;102670.09;4972035;28;20032;-70
2023/05/03 00:33:42;;;;;;;7.60;5.15;;;;;;;5.39;80.08;102670.06;4904767;29;20035;-70
2023/05/03 00:36:13;;;;;;;8.35;5.28;;;;;;;5.33;80.64;102668.31;4907257;28;20405;-70
2023/05/03 00:38:39;;;;;;;7.38;5.20;;;;;;;5.33;80.55;102663.03;4920701;28;20434;-70
2023/05/03 00:41:06;;;;;;;8.43;5.50;;;;;;;5.18;81.44;102668.28;4921913;28;20390;-69
2023/05/03 00:43:31;;;;;;;8.52;5.22;;;;;;;5.12;81.46;102668.31;4904122;28;20133;-71
2023/05/03 00:46:04;;;;;;;6.72;5.20;;;;;;;5.15;81.93;102686.78;4912252;28;20412;-71
2023/05/03 00:48:29;;;;;;;8.93;5.55;;;;;;;5.09;82.08;102674.44;4903931;28;20090;-69
2023/05/03 00:50:57;;;;;;;7.35;5.45;;;;;;;5.10;82.26;102676.22;4905055;28;20467;-70
2023/05/03 00:53:23;;;;;;;8.40;5.60;;;;;;;4.97;82.29;102677.97;4923398;28;20032;-71
2023/05/03 00:55:51;;;;;;;8.63;5.22;;;;;;;5.08;82.99;102679.72;4905354;28;20535;-71
2023/05/03 00:58:16;;;;;;;9.40;5.65;;;;;;;4.88;82.70;102672.66;4897881;28;20040;-71
2023/05/03 01:00:43;;;;;;;7.03;5.20;;;;;;;4.91;83.64;102679.72;4944048;28;20030;-71
2023/05/03 01:03:08;;;;;;;7.60;5.78;;;;;;;4.92;83.84;102670.91;4908520;28;20028;-71
2023/05/03 01:05:50;;;;;;;7.60;5.30;;;;;;;4.90;83.68;102667.41;4935760;28;20094;-71
2023/05/03 01:08:39;;;;;;;9.20;5.72;;;;;;;4.96;82.93;102673.56;4904291;28;20036;-71
2023/05/03 01:11:09;;;;;;;10.40;5.70;;;;;;;4.91;83.35;102663.88;4893707;29;20103;-71
2023/05/03 01:13:38;;;;;;;7.32;5.45;;;;;;;4.87;83.41;102655.06;4904736;29;20540;-72
2023/05/03 01:16:25;;;;;;;7.10;5.00;;;;;;;4.88;83.13;102667.38;4930562;28;20186;-71
2023/05/03 01:18:54;;;;;;;7.78;5.40;;;;;;;4.82;83.89;102663.88;4904076;28;20021;-70
2023/05/03 01:21:21;;;;;;;8.07;5.28;;;;;;;4.72;84.09;102669.13;4946722;28;20029;-70
2023/05/03 01:23:56;;;;;;;8.63;5.30;;;;;;;4.74;84.52;102670.00;4903879;29;20040;-71
2023/05/03 01:26:24;;;;;;;6.47;5.40;;;;;;;4.68;84.76;102667.34;4902657;29;20039;-71
2023/05/03 01:28:49;;;;;;;7.93;5.50;;;;;;;4.72;84.63;102673.50;4901997;29;20054;-70
2023/05/03 01:31:25;;;;;;;7.97;5.43;;;;;;;4.63;85.46;102681.38;4911115;28;20031;-71
2023/05/03 01:34:07;;;;;;;7.72;5.65;;;;;;;4.64;85.13;102672.59;4907345;28;20069;-71
2023/05/03 01:36:35;;;;;;;8.60;5.80;;;;;;;4.60;85.44;102684.00;4906961;28;20059;-71
2023/05/03 01:39:06;;;;;;;5.90;5.40;;;;;;;4.39;86.08;102676.91;4958331;28;20034;-71
2023/05/03 01:41:33;;;;;;;8.18;5.43;;;;;;;4.39;86.08;102685.72;4906829;29;20396;-71
2023/05/03 01:43:59;;;;;;;8.23;5.43;;;;;;;4.41;86.64;102678.69;4907385;29;20060;-70
2023/05/03 01:46:24;;;;;;;8.63;5.28;;;;;;;4.38;86.35;102689.19;4905291;29;20024;-70
2023/05/03 01:48:50;;;;;;;6.78;5.35;;;;;;;4.37;86.47;102682.19;4966586;28;20395;-69
2023/05/03 01:51:15;;;;;;;7.28;5.25;;;;;;;4.36;86.39;102679.53;4918224;28;20182;-70
2023/05/03 01:53:40;;;;;;;7.47;5.43;;;;;;;4.34;86.57;102683.91;4934228;28;20045;-70
2023/05/03 01:56:07;;;;;;;8.45;5.97;;;;;;;4.28;86.83;102676.88;4917837;28;20064;-69
2023/05/03 01:58:32;;;;;;;7.63;5.50;;;;;;;4.27;87.34;102684.78;4913735;28;20573;-70
2023/05/03 02:00:58;;;;;;;9.90;6.18;;;;;;;4.16;87.60;102682.97;4906608;29;20042;-71
2023/05/03 02:03:23;;;;;;;9.77;6.20;;;;;;;4.19;87.54;102688.25;4907221;29;20036;-70
2023/05/03 02:05:48;;;;;;;7.95;5.35;;;;;;;4.14;87.93;102684.72;4918242;29;20032;-70
2023/05/03 02:08:14;;;;;;;8.63;5.50;;;;;;;4.15;87.88;102688.22;4905431;28;20115;-71
2023/05/03 02:10:43;;;;;;;7.22;5.38;;;;;;;4.21;87.96;102685.63;4907162;28;20111;-70
2023/05/03 02:13:08;;;;;;;6.78;5.63;;;;;;;4.16;88.32;102690.88;4907497;28;20027;-71
2023/05/03 02:15:34;;;;;;;9.18;5.68;;;;;;;4.14;88.30;102681.19;4905595;29;20509;-71
2023/05/03 02:18:01;;;;;;;6.85;5.45;;;;;;;4.16;88.11;102676.81;4971971;28;20579;-71
2023/05/03 02:20:26;;;;;;;6.65;5.25;;;;;;;4.11;88.27;102681.19;4943398;28;20030;-71
2023/05/03 02:22:52;;;;;;;8.35;5.43;;;;;;;4.10;88.13;102682.06;4923904;28;20050;-71
2023/05/03 02:25:17;;;;;;;8.77;5.55;;;;;;;3.98;88.72;102682.88;4907168;29;20078;-71
2023/05/03 02:27:43;;;;;;;7.65;5.65;;;;;;;3.93;89.01;102680.22;4965515;28;20079;-71
2023/05/03 02:30:09;;;;;;;6.65;5.07;;;;;;;3.80;89.77;102665.19;4897403;29;20030;-71
2023/05/03 02:32:34;;;;;;;8.52;5.75;;;;;;;3.93;89.47;102671.41;4903615;28;20123;-71
2023/05/03 02:35:00;;;;;;;8.05;5.03;;;;;;;3.80;89.83;102661.66;4906059;28;20027;-71
2023/05/03 02:37:25;;;;;;;8.30;5.25;;;;;;;3.80;90.01;102664.31;4914743;28;20301;-72
2023/05/03 02:39:51;;;;;;;6.95;5.47;;;;;;;3.75;90.09;102662.53;4950935;28;20081;-71
2023/05/03 02:42:16;;;;;;;7.15;5.22;;;;;;;3.70;90.43;102652.84;4930441;28;20028;-71
2023/05/03 02:44:42;;;;;;;6.40;5.57;;;;;;;3.68;90.54;102651.97;4966294;28;20039;-71
2023/05/03 02:47:08;;;;;;;6.35;5.20;;;;;;;3.74;90.75;102647.59;4914718;28;20087;-71
2023/05/03 02:49:33;;;;;;;7.10;5.30;;;;;;;3.64;90.84;102651.06;4921583;28;20515;-71
2023/05/03 02:51:58;;;;;;;8.38;5.50;;;;;;;3.62;90.83;102636.97;4935235;28;20052;-71
2023/05/03 02:54:24;;;;;;;8.10;5.60;;;;;;;3.59;91.12;102633.44;4975407;28;20064;-71
2023/05/03 02:56:49;;;;;;;5.63;4.88;;;;;;;3.60;91.06;102635.22;4933577;28;20047;-71
2023/05/03 02:59:15;;;;;;;8.65;5.38;;;;;;;3.57;91.29;102632.56;4925050;28;20483;-71
2023/05/03 03:01:40;;;;;;;8.02;5.63;;;;;;;3.53;91.32;102626.38;4968014;28;20022;-71
2023/05/03 03:04:05;;;;;;;8.25;5.78;;;;;;;3.52;91.35;102614.09;4919913;28;20039;-71
2023/05/03 03:06:31;;;;;;;7.28;5.32;;;;;;;3.50;91.64;102610.56;4911470;28;20061;-71
2023/05/03 03:08:56;;;;;;;6.75;5.32;;;;;;;3.43;91.74;102609.66;4935933;28;20598;-71
2023/05/03 03:11:22;;;;;;;6.88;5.28;;;;;;;3.47;91.81;102616.72;4971139;28;20068;-71
2023/05/03 03:13:48;;;;;;;9.45;5.40;;;;;;;3.45;91.90;102612.28;4919035;28;20028;-70
2023/05/03 03:16:14;;;;;;;7.85;5.55;;;;;;;3.51;91.48;102628.13;4927122;28;20036;-70
2023/05/03 03:18:40;;;;;;;8.48;5.30;;;;;;;3.45;91.60;102636.88;4902731;28;20028;-71
2023/05/03 03:21:05;;;;;;;9.38;5.88;;;;;;;3.52;91.42;102629.03;4916593;28;20026;-70
2023/05/03 03:23:31;;;;;;;8.60;5.28;;;;;;;3.45;91.42;102631.59;4909139;28;20032;-71
2023/05/03 03:25:56;;;;;;;7.13;5.40;;;;;;;3.40;91.65;102635.06;4913617;28;20056;-70
2023/05/03 03:28:21;;;;;;;6.35;5.55;;;;;;;3.47;91.44;102621.97;4912809;28;20239;-71
2023/05/03 03:30:47;;;;;;;7.13;5.47;;;;;;;3.44;91.45;102626.34;4953186;28;20040;-70
2023/05/03 03:33:12;;;;;;;9.88;5.70;;;;;;;3.39;91.73;102643.84;4940581;28;20042;-71
2023/05/03 03:35:38;;;;;;;8.23;5.68;;;;;;;3.37;91.90;102640.31;4905615;28;20047;-71
2023/05/03 03:38:04;;;;;;;9.23;6.13;;;;;;;3.34;92.18;102646.41;4912225;28;20473;-71
2023/05/03 03:40:29;;;;;;;8.60;6.05;;;;;;;3.29;92.02;102642.00;4929170;28;20094;-71
2023/05/03 03:42:55;;;;;;;8.68;6.30;;;;;;;3.34;92.39;102645.53;4935888;28;20098;-71
2023/05/03 03:45:20;;;;;;;7.88;6.10;;;;;;;3.31;92.78;102641.16;4904995;28;20055;-71
2023/05/03 03:47:45;;;;;;;7.15;5.80;;;;;;;3.28;92.66;102635.88;4921536;28;20022;-71
2023/05/03 03:50:11;;;;;;;9.50;6.43;;;;;;;3.34;92.63;102643.78;4921882;28;21294;-71
2023/05/03 03:52:36;;;;;;;9.48;6.35;;;;;;;3.24;93.23;102642.84;4977135;28;20026;-71
2023/05/03 03:55:02;;;;;;;9.02;6.15;;;;;;;3.23;93.45;102642.84;4945296;28;20025;-71
2023/05/03 03:57:29;;;;;;;9.85;6.30;;;;;;;3.23;93.62;102642.84;4918572;28;20055;-71
2023/05/03 03:59:55;;;;;;;7.50;6.60;;;;;;;3.19;93.90;102638.44;4940769;28;20037;-70
2023/05/03 04:02:21;;;;;;;6.45;5.80;;;;;;;3.12;93.87;102636.59;4910505;28;20028;-70
2023/05/03 04:04:46;;;;;;;7.35;5.90;;;;;;;3.20;93.87;102637.53;4917890;28;20444;-70
2023/05/03 04:07:11;;;;;;;7.07;6.38;;;;;;;3.16;94.05;102631.38;4910128;28;20032;-71
2023/05/03 04:09:37;;;;;;;8.27;6.50;;;;;;;3.12;94.30;102645.38;4929632;28;20032;-70
2023/05/03 04:12:02;;;;;;;7.75;5.95;;;;;;;3.06;94.48;102645.34;4912482;28;20380;-70
2023/05/03 04:14:28;;;;;;;8.57;6.50;;;;;;;3.11;94.55;102650.63;4957333;28;20423;-70
2023/05/03 04:16:53;;;;;;;8.68;5.95;;;;;;;3.08;94.69;102651.47;4919671;28;20056;-69
2023/05/03 04:19:20;;;;;;;10.10;6.15;;;;;;;3.13;94.77;102656.78;4912758;28;20044;-70
2023/05/03 04:21:46;;;;;;;9.20;6.65;;;;;;;3.10;94.69;102649.75;4938311;28;20043;-71
2023/05/03 04:24:15;;;;;;;9.80;7.00;;;;;;;3.11;94.61;102662.03;4955230;28;20036;-71
2023/05/03 04:26:41;;;;;;;9.40;6.50;;;;;;;3.16;94.69;102662.06;4902464;28;20035;-70
2023/05/03 04:29:06;;;;;;;8.35;6.32;;;;;;;3.15;94.50;102663.81;4910752;28;20126;-70
2023/05/03 04:31:32;;;;;;;8.80;7.10;;;;;;;3.18;94.46;102653.34;4928116;28;20465;-71
2023/05/03 04:33:57;;;;;;;8.80;6.25;;;;;;;3.12;94.63;102649.75;4903859;28;20457;-71
2023/05/03 04:36:25;;;;;;;7.70;6.90;;;;;;;3.17;94.69;102664.69;4903439;28;20492;-71
2023/05/03 04:38:51;;;;;;;7.60;6.72;;;;;;;3.15;94.72;102657.69;4904487;29;20020;-71
2023/05/03 04:41:16;;;;;;;12.50;6.90;;;;;;;3.07;94.91;102660.25;4903237;28;20164;-71
2023/05/03 04:43:42;;;;;;;8.20;6.10;;;;;;;3.16;94.76;102675.22;4954747;28;20036;-71
2023/05/03 04:46:08;;;;;;;10.18;7.28;;;;;;;3.14;94.85;102674.34;4899187;28;20408;-70
2023/05/03 04:48:35;;;;;;;8.38;6.57;;;;;;;3.13;95.02;102676.06;4909512;28;20385;-70
2023/05/03 04:51:00;;;;;;;9.18;6.72;;;;;;;3.24;94.75;102671.78;4923103;28;20540;-73
2023/05/03 04:53:26;;;;;;;9.50;7.43;;;;;;;3.20;94.26;102674.38;4939776;28;20457;-71
2023/05/03 04:55:51;;;;;;;11.48;7.63;;;;;;;3.24;94.59;102686.69;4923579;28;20178;-71
2023/05/03 04:58:17;;;;;;;10.48;7.47;;;;;;;3.28;95.15;102693.75;4927938;28;20030;-70
2023/05/03 05:00:45;;;;;;;10.80;7.20;;;;;;;3.27;95.07;102705.16;4923141;28;20074;-71
2023/05/03 05:03:10;;;;;;;9.43;7.03;;;;;;;3.28;95.09;102712.19;4904670;29;20039;-71
2023/05/03 05:05:36;;;;;;;11.57;7.72;;;;;;;3.32;95.11;102713.09;4903290;28;20032;-70
2023/05/03 05:08:01;;;;;;;12.18;8.32;;;;;;;3.36;94.67;102713.13;4922954;28;20028;-71
2023/05/03 05:10:27;;;;;;;7.97;7.13;;;;;;;3.37;94.38;102717.53;4907399;28;20024;-71
2023/05/03 05:12:52;;;;;;;9.95;7.53;;;;;;;3.47;94.44;102732.53;4907126;29;20154;-71
2023/05/03 05:15:18;;;;;;;9.68;7.13;;;;;;;3.47;94.39;102732.53;4905689;28;20046;-70
2023/05/03 05:17:43;;;;;;;9.80;7.55;;;;;;;3.58;93.90;102721.22;4913257;28;20032;-71
2023/05/03 05:20:11;;;;;;;8.23;7.38;;;;;;;3.62;94.32;102725.63;4913486;28;20404;-71
2023/05/03 05:22:39;;;;;;;8.50;7.35;;;;;;;3.68;93.91;102718.69;4906955;28;20039;-70
2023/05/03 05:25:06;;;;;;;10.77;7.78;;;;;;;3.78;93.55;102724.88;4897648;29;20392;-70
2023/05/03 05:27:32;;;;;;;10.93;7.93;;;;;;;3.90;93.00;102724.97;4906681;28;20024;-71
2023/05/03 05:29:57;;;;;;;10.32;7.47;;;;;;;3.93;92.52;102722.38;4912592;28;20026;-71
2023/05/03 05:32:23;;;;;;;11.52;7.65;;;;;;;4.05;92.05;102718.91;4913495;28;20037;-70
2023/05/03 05:34:54;;;;;;;10.38;8.02;;;;;;;4.28;92.07;102718.16;4904938;28;20063;-70
2023/05/03 05:37:21;;;;;;;10.77;8.13;;;;;;;4.43;91.07;102718.22;4954687;28;20032;-70
2023/05/03 05:39:46;;;;;;;9.10;8.13;;;;;;;4.61;91.05;102723.59;4907136;29;20032;-70
2023/05/03 05:42:11;;;;;;;13.18;7.65;;;;;;;4.80;90.24;102719.25;4927860;28;20090;-71
2023/05/03 05:44:37;;;;;;;9.68;6.90;;;;;;;4.97;88.92;102717.56;4906314;29;20055;-70
2023/05/03 05:47:02;;;;;;;8.50;6.95;;;;;;;5.16;87.55;102717.59;4907377;29;20059;-70
2023/05/03 05:49:27;;;;;;;10.63;7.50;;;;;;;5.33;86.74;102715.84;4907476;29;20555;-70
2023/05/03 05:51:53;;;;;;;13.40;7.03;;;;;;;5.60;85.95;102709.69;4941193;28;20436;-70
2023/05/03 05:54:18;;;;;;;8.40;7.30;;;;;;;5.61;84.72;102706.16;4944421;28;20144;-70
2023/05/03 05:56:44;;;;;;;9.02;6.97;;;;;;;5.87;84.41;102721.09;4957060;28;20063;-70
2023/05/03 05:59:10;;;;;;;10.35;6.93;;;;;;;5.87;83.32;102715.81;4909482;28;20035;-70
2023/05/03 06:01:35;;;;;;;10.93;6.40;;;;;;;6.10;82.60;102729.00;4913882;29;20496;-72
2023/05/03 06:04:00;;;;;;;7.10;6.45;;;;;;;6.08;81.31;102723.75;4910230;28;20047;-72
2023/05/03 06:06:26;;;;;;;11.30;6.68;;;;;;;6.20;80.99;102728.13;4905421;28;20070;-72
2023/05/03 06:08:51;;;;;;;8.63;6.32;;;;;;;6.34;80.48;102723.66;4965470;28;20029;-71
2023/05/03 06:11:20;;;;;;;7.32;6.45;;;;;;;6.51;79.83;102728.91;4971587;28;20460;-71
2023/05/03 06:13:45;;;;;;;6.93;6.20;;;;;;;6.74;78.87;102712.94;4964566;28;20271;-70
2023/05/03 06:16:11;;;;;;;11.15;7.00;;;;;;;6.95;77.79;102718.09;4902717;28;20558;-71
2023/05/03 06:18:38;;;;;;;9.88;6.03;;;;;;;6.99;76.50;102711.03;4902227;28;20036;-71
2023/05/03 06:21:04;;;;;;;9.68;6.25;;;;;;;7.15;76.32;102717.13;4909800;28;20191;-71
2023/05/03 06:23:29;;;;;;;8.88;6.25;;;;;;;7.25;76.14;102705.56;4910310;28;20501;-71
2023/05/03 06:25:55;;;;;;;9.05;5.88;;;;;;;7.34;75.21;102710.78;4944704;28;20022;-71
2023/05/03 06:28:20;;;;;;;7.85;6.18;;;;;;;7.53;74.89;102708.88;4921033;28;20036;-71
2023/05/03 06:30:49;;;;;;;9.75;6.38;;;;;;;7.63;74.21;102704.34;4925407;28;20400;-70
2023/05/03 06:33:15;;;;;;;6.55;5.80;;;;;;;7.78;73.50;102712.19;4927540;28;20044;-70
2023/05/03 06:35:40;;;;;;;7.22;5.93;;;;;;;7.94;72.50;102700.53;4915248;28;20528;-71
2023/05/03 06:38:07;;;;;;;7.00;6.30;;;;;;;8.10;72.71;102703.88;4933797;28;20044;-71
2023/05/03 06:40:33;;;;;;;7.80;6.28;;;;;;;8.19;71.69;102705.53;4905867;28;20055;-71
2023/05/03 06:42:58;;;;;;;6.97;6.03;;;;;;;8.40;71.72;102702.72;4906494;28;20062;-70
2023/05/03 06:45:24;;;;;;;9.55;6.07;;;;;;;8.71;72.08;102703.19;4908494;28;20032;-71
2023/05/03 06:47:49;;;;;;;8.25;6.25;;;;;;;8.84;70.28;102708.31;4930163;28;20032;-70
2023/05/03 06:50:15;;;;;;;7.38;5.85;;;;;;;9.01;69.27;102700.13;4916718;28;20040;-70
2023/05/03 06:52:40;;;;;;;7.45;5.88;;;;;;;9.21;68.26;102700.69;4927498;28;20185;-70
2023/05/03 06:55:06;;;;;;;7.88;6.00;;;;;;;9.33;67.03;102689.88;4929589;28;20062;-71
2023/05/03 06:57:32;;;;;;;7.78;5.38;;;;;;;9.51;65.95;102693.13;4924074;28;20557;-76
2023/05/03 06:59:58;;;;;;;9.93;5.90;;;;;;;9.51;65.14;102683.38;4926969;28;20070;-70
2023/05/03 07:02:24;;;;;;;7.43;5.93;;;;;;;9.70;65.32;102683.94;4917680;28;20028;-72
2023/05/03 07:04:50;;;;;;;6.10;5.50;;;;;;;9.96;63.95;102681.66;4926605;28;20026;-72
2023/05/03 07:07:15;;;;;;;7.75;5.57;;;;;;;10.16;62.36;102683.94;4952345;28;20022;-71
2023/05/03 07:09:41;;;;;;;7.93;5.55;;;;;;;10.35;61.69;102684.47;4938154;28;20039;-70
2023/05/03 07:12:07;;;;;;;10.48;5.88;;;;;;;10.28;60.43;102682.81;4912238;28;20040;-71
2023/05/03 07:14:32;;;;;;;10.48;5.97;;;;;;;10.61;60.68;102691.91;4902559;29;20095;-70
2023/05/03 07:16:57;;;;;;;7.72;5.82;;;;;;;10.83;59.57;102683.47;4903548;28;20300;-71
2023/05/03 07:19:22;;;;;;;7.10;5.53;;;;;;;10.93;58.24;102682.31;4901994;28;20047;-70
2023/05/03 07:21:48;;;;;;;9.55;5.50;;;;;;;11.17;57.34;102679.09;4902612;28;20123;-71
2023/05/03 07:24:13;;;;;;;9.65;5.40;;;;;;;11.41;56.54;102685.63;4903826;29;20036;-71
2023/05/03 07:26:39;;;;;;;6.90;4.97;;;;;;;11.67;55.93;102686.75;4904042;28;20044;-72
2023/05/03 07:29:05;;;;;;;6.65;5.50;;;;;;;12.22;55.40;102679.91;4903427;29;20039;-71
2023/05/03 07:31:30;;;;;;;5.95;5.07;;;;;;;12.44;53.39;102685.50;4903927;28;20059;-71
2023/05/03 07:33:55;;;;;;;6.78;5.05;;;;;;;12.62;53.49;102690.31;4908466;28;20040;-71
2023/05/03 07:36:21;;;;;;;6.38;5.00;;;;;;;12.55;51.50;102688.75;4925413;28;20020;-72
2023/05/03 07:38:46;;;;;;;8.38;5.00;;;;;;;12.95;51.46;102688.38;4909297;28;20036;-70
2023/05/03 07:41:11;;;;;;;6.25;5.28;;;;;;;13.11;51.08;102683.44;4934012;28;20875;-71
2023/05/03 07:43:37;;;;;;;7.07;5.43;;;;;;;13.27;50.13;102673.16;4903144;28;20537;-71
2023/05/03 07:46:02;;;;;;;7.70;4.80;;;;;;;13.61;49.73;102672.00;4931662;28;20031;-71
2023/05/03 07:48:28;;;;;;;5.10;4.55;;;;;;;14.06;47.76;102663.28;4904719;28;20075;-71
2023/05/03 07:50:53;;;;;;;7.38;4.68;;;;;;;14.35;46.61;102673.78;4905362;28;20110;-71
2023/05/03 07:53:18;;;;;;;7.07;5.13;;;;;;;14.74;46.47;102665.19;4906014;28;20484;-71
2023/05/03 07:55:44;;;;;;;7.35;5.03;;;;;;;14.94;45.70;102661.72;4986251;28;20035;-71
2023/05/03 07:58:09;;;;;;;6.80;4.70;;;;;;;15.07;44.98;102654.91;4905341;28;20416;-70
2023/05/03 08:00:34;;;;;;;6.53;4.45;;;;;;;15.26;44.76;102657.72;4902617;28;20143;-71
2023/05/03 08:03:02;;;;;;;7.78;4.50;;;;;;;15.40;43.26;102649.06;4904956;28;20071;-71
2023/05/03 08:05:28;;;;;;;7.40;4.40;;;;;;;15.65;43.00;102651.63;4927053;28;20040;-71
2023/05/03 08:07:53;;;;;;;6.72;4.65;;;;;;;15.76;42.31;102653.81;4909601;28;20078;-70
2023/05/03 08:10:19;;;;;;;7.05;5.03;;;;;;;16.00;41.63;102651.84;4930174;28;20038;-71
2023/05/03 08:12:44;;;;;;;6.90;3.90;;;;;;;16.44;39.79;102636.38;4903867;28;20028;-71
2023/05/03 08:15:10;;;;;;;5.90;3.90;;;;;;;16.31;39.06;102638.78;4904355;28;20046;-71
2023/05/03 08:17:40;;;;;;;5.20;4.25;;;;;;;16.42;40.46;102632.88;4910315;28;20020;-71
2023/05/03 08:20:07;;;;;;;6.53;4.07;;;;;;;17.12;38.45;102626.81;4916076;28;20051;-72
2023/05/03 08:22:32;;;;;;;6.00;4.40;;;;;;;17.38;36.93;102627.31;4907661;28;20109;-71
2023/05/03 08:24:58;;;;;;;4.72;3.90;;;;;;;17.23;36.64;102625.41;4921211;28;20501;-72
2023/05/03 08:27:27;;;;;;;5.88;3.90;;;;;;;17.52;36.20;102624.78;4916291;28;20505;-70
2023/05/03 08:29:52;;;;;;;6.70;4.00;;;;;;;17.35;36.48;102630.19;4924076;28;20053;-71
2023/05/03 08:32:19;;;;;;;8.55;4.10;;;;;;;17.70;36.75;102633.72;4929351;28;20027;-70
2023/05/03 08:34:45;;;;;;;6.15;3.83;;;;;;;18.00;36.49;102631.25;4904815;28;20107;-71
2023/05/03 08:37:10;;;;;;;5.80;3.88;;;;;;;18.37;35.45;102630.13;4904133;29;20095;-71
2023/05/03 08:39:35;;;;;;;6.00;3.63;;;;;;;18.65;33.99;102615.09;4922907;28;20512;-71
2023/05/03 08:42:06;;;;;;;4.22;3.60;;;;;;;18.85;33.91;102613.97;4904282;28;20039;-72
2023/05/03 08:44:36;;;;;;;7.18;3.97;;;;;;;18.99;33.53;102607.78;4898886;28;20067;-71
2023/05/03 08:47:03;;;;;;;6.20;4.40;;;;;;;19.02;32.84;102615.69;4891963;29;20027;-71
2023/05/03 08:49:30;;;;;;;5.70;3.50;;;;;;;19.63;32.66;102612.06;4901341;28;20027;-71
2023/05/03 08:51:56;;;;;;;6.00;3.85;;;;;;;20.20;31.70;102617.50;4903019;28;20104;-72
2023/05/03 08:54:23;;;;;;;6.35;3.70;;;;;;;20.17;30.07;102620.41;4907313;28;20031;-71
2023/05/03 08:56:48;;;;;;;5.53;3.95;;;;;;;20.23;30.73;102620.03;4919318;28;20052;-71
2023/05/03 08:59:16;;;;;;;4.82;3.88;;;;;;;20.60;30.84;102612.25;4905176;28;20400;-71
2023/05/03 09:01:42;;;;;;;4.40;3.95;;;;;;;20.48;29.92;102613.00;4903909;29;20032;-72
2023/05/03 09:04:08;;;;;;;5.18;3.58;;;;;;;20.78;30.26;102626.44;4898310;28;20253;-72
2023/05/03 09:06:35;;;;;;;4.63;3.65;;;;;;;21.27;29.41;102632.13;4903767;28;20059;-72
2023/05/03 09:09:06;;;;;;;5.50;3.55;;;;;;;21.82;28.79;102635.59;4903373;28;20075;-72
2023/05/03 09:11:32;;;;;;;6.82;4.13;;;;;;;22.50;28.44;102637.97;4898863;28;20149;-72
2023/05/03 09:14:12;;;;;;;6.38;3.95;;;;;;;22.91;28.20;102633.19;4908597;28;20377;-72
2023/05/03 09:16:40;;;;;;;4.43;3.78;;;;;;;22.37;26.49;102637.13;4902633;28;20507;-71
2023/05/03 09:19:11;;;;;;;6.25;3.17;;;;;;;21.73;28.01;102634.41;4928915;28;20062;-70
2023/05/03 09:21:40;;;;;;;6.22;4.10;;;;;;;21.93;27.70;102624.00;4901158;28;20032;-71
2023/05/03 09:24:35;;;;;;;5.25;3.80;;;;;;;22.77;27.69;102623.34;4918132;28;20038;-71
2023/05/03 09:27:16;;;;;;;7.07;3.88;;;;;;;22.72;27.20;102622.81;4922634;28;20048;-71
2023/05/03 09:29:42;;;;;;;5.10;3.90;;;;;;;23.01;26.48;102612.53;4907804;28;20060;-72
2023/05/03 09:32:09;;;;;;;5.10;3.67;;;;;;;23.16;25.92;102618.63;4900748;28;20539;-71
2023/05/03 09:34:35;;;;;;;5.20;3.80;;;;;;;22.67;26.13;102622.31;4924868;28;20033;-71
2023/05/03 09:37:01;;;;;;;5.70;3.60;;;;;;;23.03;26.28;102619.59;4904320;28;20028;-72
2023/05/03 09:39:27;;;;;;;6.82;3.90;;;;;;;23.43;25.61;102612.94;4913275;28;20107;-72
2023/05/03 09:41:52;;;;;;;6.90;4.20;;;;;;;23.79;25.33;102623.69;4913185;28;20650;-72
2023/05/03 09:44:18;;;;;;;6.40;3.55;;;;;;;24.05;24.28;102602.56;4907590;28;20115;-71
2023/05/03 09:47:05;;;;;;;5.60;3.33;;;;;;;24.52;25.85;102616.91;4924784;28;20418;-71
2023/05/03 09:49:32;;;;;;;4.43;3.78;;;;;;;24.56;23.98;102612.06;4900178;28;20480;-71
2023/05/03 09:52:01;;;;;;;5.70;3.63;;;;;;;24.38;24.01;102614.44;4897051;28;20123;-71
2023/05/03 09:54:30;;;;;;;6.85;3.60;;;;;;;24.75;23.53;102615.00;4903402;28;20040;-70
2023/05/03 09:56:56;;;;;;;5.88;4.00;;;;;;;24.26;24.69;102615.41;4901219;28;20040;-71
2023/05/03 09:59:22;;;;;;;5.28;3.78;;;;;;;25.06;24.52;102613.28;4899270;28;20045;-71
2023/05/03 10:01:47;;;;;;;5.22;3.83;;;;;;;25.69;22.89;102609.75;4897723;28;20040;-72
2023/05/03 10:04:19;;;;;;;7.25;3.97;;;;;;;25.80;22.90;102604.28;4902445;28;20071;-72
2023/05/03 10:06:48;;;;;;;5.47;3.88;;;;;;;24.95;22.71;102596.13;4910611;28;20040;-72
2023/05/03 10:09:27;;;;;;;7.70;4.05;;;;;;;24.97;23.66;102597.72;4912684;28;20426;-71
2023/05/03 10:11:55;;;;;;;4.68;3.80;;;;;;;25.51;22.53;102604.06;4903317;28;20032;-72
2023/05/03 10:14:21;;;;;;;6.07;3.85;;;;;;;25.41;22.49;102593.06;4904471;28;20036;-71
2023/05/03 10:16:49;;;;;;;4.95;4.18;;;;;;;25.97;22.61;102594.59;4923404;28;20090;-71
2023/05/03 10:19:33;;;;;;;6.80;4.20;;;;;;;27.27;23.18;102586.28;4905053;28;20052;-71
2023/05/03 10:22:06;;;;;;;4.97;3.95;;;;;;;27.84;21.93;102588.19;4916615;28;20037;-71
2023/05/03 10:25:01;;;;;;;4.82;3.80;;;;;;;28.37;21.20;102584.81;4901332;28;20042;-71
2023/05/03 10:27:44;;;;;;;5.88;4.15;;;;;;;27.94;21.73;102587.16;4902858;28;20059;-72
2023/05/03 10:30:28;;;;;;;4.60;3.72;;;;;;;27.35;21.47;102585.56;4910398;28;20131;-73
2023/05/03 10:32:54;;;;;;;5.97;3.85;;;;;;;27.46;20.67;102592.72;4905047;28;20058;-71
2023/05/03 10:35:19;;;;;;;5.00;3.75;;;;;;;27.71;20.15;102592.06;4906629;28;20040;-73
2023/05/03 10:37:50;;;;;;;5.35;4.43;;;;;;;28.13;20.12;102588.06;4905287;28;20039;-73
2023/05/03 10:40:17;;;;;;;5.95;4.13;;;;;;;27.82;19.73;102582.00;4900855;28;20032;-72
2023/05/03 10:42:55;;;;;;;4.70;4.20;;;;;;;28.40;19.91;102596.34;4887043;28;20024;-73
2023/05/03 10:45:28;;;;;;;5.63;4.30;;;;;;;27.73;21.01;102592.84;4904552;28;20046;-72
2023/05/03 10:48:11;;;;;;;;;;;;;;;29.58;19.65;102595.28;4905596;28;20024;-72
2023/05/03 10:50:40;;;;;;;6.15;4.38;;;;;;;28.04;20.08;102593.44;4905797;28;19915;-72
2023/05/03 10:53:06;;;;;;;5.85;4.53;;;;;;;27.05;20.31;102592.88;4895157;28;20063;-73
2023/05/03 10:55:32;;;;;;;5.45;4.10;;;;;;;27.72;20.22;102595.69;4911392;28;20106;-71
2023/05/03 10:57:59;;;;;;;5.65;4.35;;;;;;;27.84;19.86;102586.34;4902902;29;20036;-71
2023/05/03 11:00:27;;;;;;;6.63;4.32;;;;;;;27.29;20.16;102584.25;4905598;29;20032;-71
2023/05/03 11:03:14;;;;;;;6.45;4.30;;;;;;;27.44;20.69;102587.41;4904776;29;20086;-71
2023/05/03 11:05:41;;;;;;;7.97;4.50;;;;;;;28.16;20.18;102593.25;4930212;28;20048;-71
2023/05/03 11:08:16;;;;;;;5.00;3.88;;;;;;;28.09;20.10;102592.97;4911307;28;20036;-71
2023/05/03 11:10:47;;;;;;;6.60;4.20;;;;;;;28.15;19.07;102591.53;4901835;28;20028;-73
2023/05/03 11:13:12;;;;;;;5.25;3.67;;;;;;;27.70;19.14;102584.88;4904728;28;20043;-72
2023/05/03 11:15:38;;;;;;;4.78;3.75;;;;;;;27.30;19.59;102583.25;4938204;28;20038;-72
2023/05/03 11:18:06;;;;;;;6.03;4.20;;;;;;;26.82;20.10;102592.28;4908637;28;20024;-71
2023/05/03 11:20:32;;;;;;;5.28;3.97;;;;;;;26.72;20.01;102580.50;4901626;28;20046;-71
2023/05/03 11:22:58;;;;;;;5.95;4.20;;;;;;;27.53;19.84;102563.78;4928836;28;20028;-71
2023/05/03 11:25:23;;;;;;;4.00;3.65;;;;;;;27.70;18.95;102557.53;4909795;29;20055;-72
2023/05/03 11:27:49;;;;;;;4.38;3.47;;;;;;;28.18;19.16;102572.94;4905450;28;20043;-72
2023/05/03 11:30:14;;;;;;;4.28;3.72;;;;;;;27.84;18.81;102566.28;4947003;28;20033;-72